Historyczne dane pomiarowe

Dodano dane terminowe – wersja testowa.

Dane z okresu 1951-2019

Wersja bazy: 1.34 [2019-03-16, lista zmian], aktualizacja planowana na 2019-04-15

Dane meteo z obszaru Polski uzyskane na podstawie danych udostępnionych przez Instytut Meteorologii i Gospodarki Wodnej – Państwowy Instytut Badawczy.

 

Wybierz Datę:    

       

TemperaturaWilgotnośćWiatrCiśnienieOpadyŚniegCzas trwania zjawisk
 Stacja t tx tn tng RH VA  wxwx mslp ppp RRR   cm mm wxwxwxwxwxwxwx
1997-10-11 12.5 19.4 8.8- 78.5- 4.7 5.0---- 0.8------------
1997-10-12 9.8 11.9 8.2- 81.5- 8.0 1.0---- 5.2------------
1997-10-13 7.2 10.4 5.9- 90.3- 6.7 1.7---- 0.0------------
1997-10-14 5.6 11.4 2.1- 73.0- 4.7 1.0---- 1.4------------
1997-10-15 6.2 11.9 3.5- 93.3- 6.0 1.0---- 6.6------------
1997-10-16 2.8 6.4 -1.0- 90.0- 7.7 1.0---- 4.0------------
1997-10-17 3.2 5.9 -0.5- 92.0- 4.7 1.0---- 0.0------------
1997-10-18 2.4 10.4 -3.6- 88.3- 2.3 0.7---- 0.0------------
1997-10-19 5.1 10.9 0.5- 86.5- 5.0 1.0---- 0.0------------
1997-10-20 5.2 11.4 0.5- 89.0- 3.0 1.0---- 0.0------------
1997-10-21 2.4 7.4 -0.5- 88.8- 2.3 0.7---- 0.0------------
1997-10-22 -0.4 5.4 -4.6- 81.0- 6.0 1.0---- 0.0------------
1997-10-23 2.2 6.4 -0.5- 85.5- 4.7 0.7---- 0.0------------
1997-10-24 2.2 7.4 -2.0- 87.0- 6.0 3.0---- 0.0------------
1997-10-25 -1.2 2.9 -3.6- 86.8- 6.0 1.7---- 10.0------------
1997-10-26 -4.0 -0.1 -6.6- 78.0- 5.0 1.0---- 0.0-- 10---------
1997-10-27 -2.5 2.4 -7.6- 83.3- 7.3 1.7---- 0.0-- 5---------
1997-10-28 -3.4 2.4 -9.2- 85.5- 7.0 0.3---- 0.0------------
1997-10-29 -1.1 2.4 -4.6- 77.3- 6.3 0.7---- 0.0------------
1997-10-30 2.3 4.4 0.0- 85.0- 8.0 1.0---- 0.0------------
1997-10-31 2.7 4.9 1.0- 92.0- 7.3 1.0---- 0.0------------
1997-11-01 -2.0 3.3 -4.6- 95.5- 8.0 0.3---- 0.0------------
1997-11-02 0.9 7.4 -4.1- 90.5- 7.0 0.7---- 0.0------------
1997-11-03 4.8 7.9 2.1- 89.8- 8.0 1.7---- 0.0------------
1997-11-04 -0.1 5.9 -2.5- 91.0- 2.0 1.0---- 0.0------------
1997-11-05 0.0 4.4 -4.1- 86.3- 2.7 2.3---- 0.0------------
1997-11-06 6.7 12.4 -0.5- 90.8- 4.0 6.3---- 0.0------------
1997-11-07 11.0 17.4 2.1- 92.8- 5.3 1.0---- 0.8------------
1997-11-08 14.5 17.9 10.8- 92.5- 5.3 1.0---- 0.6------------
1997-11-09 11.8 18.4 9.3- 93.5- 5.0 0.3---- 0.0------------
184.0 ms

 

Źródłem pochodzenia danych jest Instytut Meteorologii i Gospodarki Wodnej – Państwowy Instytut Badawczy. Dane Instytutu Meteorologii i Gospodarki Wodnej – Państwowego Instytutu Badawczego zostały przetworzone.

Dane źródłowe można odnaleźć na stronie https://dane.imgw.pl